createdAt,value
2023-05-14T00:04:32.578Z,29.48
2023-05-14T00:07:17.459Z,27.77
2023-05-14T00:10:02.164Z,29.58
2023-05-14T00:12:47.241Z,26.75
2023-05-14T00:15:34.192Z,27.80
2023-05-14T00:18:19.716Z,27.45
2023-05-14T00:21:04.644Z,29.92
2023-05-14T00:26:33.458Z,28.60
2023-05-14T00:29:18.021Z,28.60
2023-05-14T00:32:03.118Z,26.52
2023-05-14T00:34:47.699Z,31.15
2023-05-14T00:37:32.859Z,28.65
2023-05-14T00:40:17.655Z,26.92
2023-05-14T00:43:03.091Z,29.92
2023-05-14T00:45:53.087Z,27.10
2023-05-14T00:48:37.891Z,24.90
2023-05-14T00:51:23.287Z,27.25
2023-05-14T00:54:08.363Z,26.70
2023-05-14T00:56:54.097Z,30.13
2023-05-14T00:59:41.142Z,29.98
2023-05-14T01:02:25.937Z,26.67
2023-05-14T01:08:07.010Z,29.52
2023-05-14T01:10:59.889Z,28.15
2023-05-14T01:14:07.743Z,29.52
2023-05-14T01:16:57.179Z,28.95
2023-05-14T01:19:46.795Z,30.58
2023-05-14T01:22:31.759Z,30.25
2023-05-14T01:25:16.602Z,29.63
2023-05-14T01:28:28.338Z,33.95
2023-05-14T01:31:19.045Z,28.40
2023-05-14T01:34:06.075Z,27.25
2023-05-14T01:36:52.760Z,30.63
2023-05-14T01:39:38.986Z,29.45
2023-05-14T01:42:25.304Z,30.83
2023-05-14T01:45:10.380Z,30.00
2023-05-14T01:47:55.480Z,34.45
2023-05-14T01:50:40.748Z,31.52
2023-05-14T01:53:25.705Z,32.28
2023-05-14T01:56:10.894Z,30.77
2023-05-14T01:58:56.199Z,29.48
2023-05-14T02:01:41.405Z,27.48
2023-05-14T02:04:26.378Z,30.23
2023-05-14T02:07:11.185Z,29.15
2023-05-14T02:12:40.283Z,29.05
2023-05-14T02:18:09.859Z,28.10
2023-05-14T02:20:55.170Z,31.50
2023-05-14T02:23:41.961Z,28.20
2023-05-14T02:26:27.389Z,31.88
2023-05-14T02:29:13.029Z,28.88
2023-05-14T02:31:57.900Z,24.38
2023-05-14T02:34:42.492Z,28.73
2023-05-14T02:40:11.735Z,25.83
2023-05-14T02:42:56.537Z,25.40
2023-05-14T02:45:41.021Z,26.85
2023-05-14T02:48:25.908Z,26.85
2023-05-14T02:51:11.023Z,28.45
2023-05-14T02:53:55.590Z,27.73
2023-05-14T02:56:40.203Z,27.15
2023-05-14T02:59:24.693Z,28.40
2023-05-14T03:02:09.904Z,26.65
2023-05-14T03:04:55.397Z,28.45
2023-05-14T03:10:24.522Z,30.77
2023-05-14T03:13:09.054Z,27.52
2023-05-14T03:15:54.268Z,26.98
2023-05-14T03:18:39.106Z,27.52
2023-05-14T03:21:24.284Z,26.10
2023-05-14T03:24:08.797Z,25.23
2023-05-14T03:26:53.840Z,22.77
2023-05-14T03:29:38.484Z,21.38
2023-05-14T03:32:22.944Z,23.23
2023-05-14T03:35:08.263Z,23.48
2023-05-14T03:37:52.913Z,22.00
2023-05-14T03:40:38.081Z,20.17
2023-05-14T03:43:22.724Z,21.60
2023-05-14T03:46:08.189Z,23.60
2023-05-14T03:48:52.914Z,22.00
2023-05-14T03:51:37.903Z,19.23
2023-05-14T03:54:23.496Z,20.58
2023-05-14T03:57:08.252Z,20.75
2023-05-14T03:59:52.866Z,23.92
2023-05-14T04:02:37.509Z,33.20
2023-05-14T04:05:22.375Z,36.88
2023-05-14T04:08:07.281Z,27.20
2023-05-14T04:10:52.059Z,23.50
2023-05-14T04:13:36.578Z,20.05
2023-05-14T04:16:21.439Z,20.50
2023-05-14T04:19:06.783Z,19.73
2023-05-14T04:21:51.525Z,19.98
2023-05-14T04:24:36.260Z,18.35
2023-05-14T04:27:21.668Z,18.88
2023-05-14T04:30:07.749Z,19.02
2023-05-14T04:32:52.899Z,21.15
2023-05-14T04:35:37.671Z,20.35
2023-05-14T04:38:22.626Z,22.02
2023-05-14T04:41:07.387Z,23.33
2023-05-14T04:43:55.408Z,21.17
2023-05-14T04:46:40.297Z,23.05
2023-05-14T04:49:25.344Z,23.33
2023-05-14T04:52:10.166Z,24.65
2023-05-14T04:54:56.201Z,24.25
2023-05-14T04:57:41.248Z,23.95
2023-05-14T05:00:26.418Z,25.45
2023-05-14T05:03:12.199Z,24.33
2023-05-14T05:05:56.853Z,25.08
2023-05-14T05:08:41.762Z,26.50
2023-05-14T05:11:26.561Z,23.48
2023-05-14T05:14:11.078Z,22.17
2023-05-14T05:16:56.057Z,21.02
2023-05-14T05:19:44.238Z,21.85
2023-05-14T05:22:29.231Z,22.05
2023-05-14T05:25:13.834Z,18.30
2023-05-14T05:27:58.744Z,16.38
2023-05-14T05:30:44.575Z,16.30
2023-05-14T05:33:29.378Z,13.65
2023-05-14T05:36:14.443Z,17.75
2023-05-14T05:38:59.205Z,15.48
2023-05-14T05:41:43.871Z,12.10
2023-05-14T05:44:28.324Z,12.02
2023-05-14T05:47:12.795Z,12.40
2023-05-14T05:49:57.163Z,9.77
2023-05-14T05:52:41.801Z,12.23
2023-05-14T05:55:28.069Z,9.85
2023-05-14T05:58:15.106Z,10.70
2023-05-14T06:01:00.585Z,7.75
2023-05-14T06:03:46.450Z,11.05
2023-05-14T06:06:33.094Z,7.03
2023-05-14T06:09:18.049Z,6.03
2023-05-14T06:12:03.166Z,8.13
2023-05-14T06:14:48.138Z,7.88
2023-05-14T06:17:33.142Z,6.88
2023-05-14T06:20:18.630Z,10.40
2023-05-14T06:23:03.127Z,7.65
2023-05-14T06:25:50.762Z,8.93
2023-05-14T06:28:35.730Z,7.20
2023-05-14T06:31:20.880Z,8.55
2023-05-14T06:34:05.781Z,8.82
2023-05-14T06:36:50.255Z,7.43
2023-05-14T06:39:38.710Z,7.82
2023-05-14T06:42:23.455Z,7.85
2023-05-14T06:45:08.467Z,7.20
2023-05-14T06:47:53.367Z,8.32
2023-05-14T06:50:38.005Z,5.90
2023-05-14T06:53:22.620Z,7.03
2023-05-14T06:56:07.596Z,6.30
2023-05-14T06:58:52.108Z,7.07
2023-05-14T07:01:36.905Z,6.75
2023-05-14T07:04:21.401Z,5.40
2023-05-14T07:07:06.431Z,7.53
2023-05-14T07:09:51.275Z,5.45
2023-05-14T07:12:36.003Z,5.47
2023-05-14T07:15:20.899Z,7.53
2023-05-14T07:18:05.926Z,5.97
2023-05-14T07:20:50.341Z,5.18
2023-05-14T07:23:36.447Z,5.70
2023-05-14T07:26:23.697Z,5.40
2023-05-14T07:29:08.518Z,3.53
2023-05-14T07:31:52.849Z,4.00
2023-05-14T07:34:37.309Z,4.47
2023-05-14T07:37:23.656Z,4.13
2023-05-14T07:40:08.974Z,4.72
2023-05-14T07:42:53.583Z,3.83
2023-05-14T07:45:40.953Z,6.35
2023-05-14T07:48:25.733Z,4.20
2023-05-14T07:51:11.152Z,4.72
2023-05-14T07:53:55.623Z,5.18
2023-05-14T07:56:40.640Z,4.45
2023-05-14T07:59:25.487Z,6.05
2023-05-14T08:02:12.204Z,5.25
2023-05-14T08:04:56.740Z,6.22
2023-05-14T08:07:40.886Z,3.58
2023-05-14T08:10:25.921Z,4.05
2023-05-14T08:13:10.967Z,4.85
2023-05-14T08:15:55.858Z,5.68
2023-05-14T08:18:40.779Z,5.80
2023-05-14T08:21:25.713Z,3.17
2023-05-14T08:24:10.717Z,3.80
2023-05-14T08:26:55.581Z,4.18
2023-05-14T08:29:40.858Z,4.40
2023-05-14T08:32:25.779Z,4.30
2023-05-14T08:35:10.853Z,4.55
2023-05-14T08:37:56.524Z,4.68
2023-05-14T08:40:41.792Z,5.05
2023-05-14T08:43:43.873Z,4.75
2023-05-14T08:46:30.407Z,4.53
2023-05-14T08:49:28.061Z,3.92
2023-05-14T08:52:12.959Z,3.47
2023-05-14T08:55:00.827Z,4.15
2023-05-14T08:57:45.933Z,3.85
2023-05-14T09:00:30.758Z,4.22
2023-05-14T09:03:17.722Z,4.18
2023-05-14T09:06:04.192Z,3.70
2023-05-14T09:08:49.178Z,4.20
2023-05-14T09:11:34.003Z,3.92
2023-05-14T09:14:19.770Z,3.92
2023-05-14T09:17:04.717Z,3.80
2023-05-14T09:19:52.307Z,4.53
2023-05-14T09:22:38.184Z,5.88
2023-05-14T09:25:27.273Z,4.40
2023-05-14T09:28:12.150Z,5.20
2023-05-14T09:30:57.095Z,3.67
2023-05-14T09:33:41.604Z,3.72
2023-05-14T09:36:26.686Z,3.70
2023-05-14T09:39:11.710Z,3.88
2023-05-14T09:41:56.360Z,4.72
2023-05-14T09:44:41.444Z,3.03
2023-05-14T09:47:26.347Z,4.97
2023-05-14T09:50:11.115Z,3.28
2023-05-14T09:52:55.568Z,4.75
2023-05-14T09:55:41.049Z,6.63
2023-05-14T09:58:26.007Z,4.07
2023-05-14T10:01:11.306Z,3.58
2023-05-14T10:03:56.628Z,5.32
2023-05-14T10:06:43.280Z,3.70
2023-05-14T10:09:29.212Z,5.68
2023-05-14T10:12:19.610Z,5.95
2023-05-14T10:15:13.148Z,4.35
2023-05-14T10:18:01.110Z,3.15
2023-05-14T10:21:13.753Z,3.65
2023-05-14T10:23:59.697Z,6.20
2023-05-14T10:26:44.861Z,5.05
2023-05-14T10:29:37.667Z,3.47
2023-05-14T10:32:25.104Z,4.10
2023-05-14T10:35:19.615Z,5.60
2023-05-14T10:38:08.211Z,4.72
2023-05-14T10:41:09.319Z,4.22
2023-05-14T10:43:56.918Z,6.72
2023-05-14T10:46:41.842Z,3.28
2023-05-14T10:49:42.400Z,3.38
2023-05-14T10:52:28.981Z,4.05
2023-05-14T10:55:15.780Z,6.72
2023-05-14T10:58:03.895Z,3.78
2023-05-14T11:00:53.720Z,3.58
2023-05-14T11:06:28.925Z,4.38
2023-05-14T11:09:16.991Z,2.50
2023-05-14T11:12:01.832Z,3.28
2023-05-14T11:14:46.924Z,2.78
2023-05-14T11:17:32.033Z,2.30
2023-05-14T11:20:17.973Z,4.13
2023-05-14T11:23:02.868Z,5.05
2023-05-14T11:25:47.588Z,2.70
2023-05-14T11:28:32.169Z,4.93
2023-05-14T11:31:17.006Z,3.85
2023-05-14T11:34:03.572Z,4.10
2023-05-14T11:36:48.713Z,2.70
2023-05-14T11:39:35.264Z,3.13
2023-05-14T11:42:21.681Z,3.78
2023-05-14T11:45:10.550Z,2.83
2023-05-14T11:47:55.509Z,3.92
2023-05-14T11:50:44.813Z,4.15
2023-05-14T11:53:30.265Z,3.08
2023-05-14T11:56:15.336Z,3.72
2023-05-14T11:59:00.153Z,6.55
2023-05-14T12:01:46.184Z,4.30
2023-05-14T12:04:31.265Z,7.93
2023-05-14T12:07:16.143Z,4.47
2023-05-14T12:10:02.704Z,3.95
2023-05-14T12:12:48.312Z,2.88
2023-05-14T12:15:32.897Z,2.50
2023-05-14T12:18:24.205Z,2.83
2023-05-14T12:21:11.367Z,3.92
2023-05-14T12:24:00.249Z,5.65
2023-05-14T12:26:50.069Z,2.72
2023-05-14T12:29:37.339Z,3.70
2023-05-14T12:32:25.244Z,4.22
2023-05-14T12:35:10.230Z,5.43
2023-05-14T12:37:55.031Z,5.03
2023-05-14T12:40:40.114Z,3.35
2023-05-14T12:43:29.320Z,5.32
2023-05-14T12:46:14.066Z,6.03
2023-05-14T12:48:59.486Z,5.82
2023-05-14T12:51:43.957Z,7.28
2023-05-14T12:54:28.532Z,7.07
2023-05-14T12:57:13.470Z,5.30
2023-05-14T12:59:58.331Z,5.30
2023-05-14T13:02:43.964Z,7.78
2023-05-14T13:05:29.034Z,5.03
2023-05-14T13:08:17.224Z,5.25
2023-05-14T13:11:01.868Z,4.80
2023-05-14T13:13:46.361Z,8.63
2023-05-14T13:16:30.969Z,6.30
2023-05-14T13:19:16.031Z,11.50
2023-05-14T13:22:00.704Z,7.75
2023-05-14T13:24:45.749Z,5.50
2023-05-14T13:27:30.255Z,6.57
2023-05-14T13:30:16.836Z,4.25
2023-05-14T13:33:01.948Z,3.55
2023-05-14T13:35:46.625Z,3.92
2023-05-14T13:38:31.143Z,6.82
2023-05-14T13:41:15.946Z,7.32
2023-05-14T13:44:00.427Z,4.47
2023-05-14T13:46:45.082Z,4.47
2023-05-14T13:49:29.998Z,3.83
2023-05-14T13:52:14.441Z,3.22
2023-05-14T13:54:58.959Z,3.58
2023-05-14T13:57:43.580Z,3.10
2023-05-14T14:00:28.356Z,3.65
2023-05-14T14:03:12.808Z,4.40
2023-05-14T14:05:57.448Z,3.67
2023-05-14T14:08:42.556Z,3.38
2023-05-14T14:11:27.508Z,4.00
2023-05-14T14:14:12.559Z,5.18
2023-05-14T14:16:57.280Z,3.33
2023-05-14T14:19:41.934Z,4.40
2023-05-14T14:22:28.248Z,2.88
2023-05-14T14:25:13.741Z,4.00
2023-05-14T14:27:58.494Z,3.63
2023-05-14T14:30:43.256Z,3.38
2023-05-14T14:33:28.108Z,4.30
2023-05-14T14:36:12.906Z,3.30
2023-05-14T14:38:57.831Z,3.70
2023-05-14T14:41:43.727Z,6.35
2023-05-14T14:44:28.698Z,3.72
2023-05-14T14:47:13.300Z,4.72
2023-05-14T14:49:57.781Z,3.72
2023-05-14T14:52:45.478Z,3.92
2023-05-14T14:55:30.850Z,4.25
2023-05-14T14:58:16.041Z,3.15
2023-05-14T15:01:01.290Z,2.67
2023-05-14T15:03:47.679Z,4.50
2023-05-14T15:06:32.788Z,3.17
2023-05-14T15:09:17.224Z,5.35
2023-05-14T15:12:02.583Z,2.47
2023-05-14T15:14:47.323Z,2.70
2023-05-14T15:17:31.886Z,4.60
2023-05-14T15:20:16.715Z,4.32
2023-05-14T15:23:01.943Z,3.20
2023-05-14T15:25:46.510Z,3.70
2023-05-14T15:28:31.294Z,4.03
2023-05-14T15:31:15.919Z,4.00
2023-05-14T15:34:01.134Z,3.25
2023-05-14T15:36:46.040Z,5.25
2023-05-14T15:39:30.869Z,4.28
2023-05-14T15:42:15.679Z,3.35
2023-05-14T15:45:00.523Z,4.55
2023-05-14T15:47:45.470Z,7.10
2023-05-14T15:50:30.171Z,8.52
2023-05-14T15:53:15.296Z,7.20
2023-05-14T15:56:00.250Z,5.22
2023-05-14T15:58:44.767Z,4.30
2023-05-14T16:01:29.788Z,3.97
2023-05-14T16:04:14.159Z,4.00
2023-05-14T16:07:03.628Z,4.22
2023-05-14T16:09:48.263Z,5.10
2023-05-14T16:12:33.728Z,4.38
2023-05-14T16:15:18.356Z,3.80
2023-05-14T16:18:03.393Z,4.47
2023-05-14T16:20:48.142Z,4.57
2023-05-14T16:23:32.738Z,3.78
2023-05-14T16:26:17.218Z,3.58
2023-05-14T16:29:02.141Z,2.80
2023-05-14T16:31:46.679Z,5.03
2023-05-14T16:34:31.802Z,4.05
2023-05-14T16:37:19.138Z,3.53
2023-05-14T16:40:04.354Z,2.60
2023-05-14T16:42:49.404Z,3.80
2023-05-14T16:45:36.604Z,3.13
2023-05-14T16:48:23.139Z,3.88
2023-05-14T16:51:09.055Z,3.42
2023-05-14T16:53:55.500Z,3.47
2023-05-14T16:56:41.435Z,4.25
